Time;durP1;ratioP1;P1;durP2;ratioP2;P2;SDS_P1;SDS_P2;PMS_P1;PMS_P2;Temp;Humidity;BMP_temperature;BMP_pressure;BME280_temperature;BME280_humidity;BME280_pressure;Samples;Min_cycle;Max_cycle;Signal;HPM_P1;HPM_P2
2023/08/19 00:12:25;;;;;;;30.10;22.70;;;;;;;24.94;100.00;100676.32;673168;1262;139804;-76
2023/08/19 00:27:29;;;;;;;28.30;21.80;;;;;;;24.96;100.00;100666.69;669768;1263;139404;-76
2023/08/19 00:42:32;;;;;;;27.50;21.10;;;;;;;24.78;100.00;100674.44;669754;1273;139458;-76
2023/08/19 00:57:37;;;;;;;33.30;24.20;;;;;;;24.97;100.00;100659.73;669536;1264;139351;-76
2023/08/19 01:12:54;;;;;;;34.70;23.60;;;;;;;25.21;100.00;100652.17;669999;1262;140155;-77
2023/08/19 01:28:04;;;;;;;29.70;22.30;;;;;;;25.30;100.00;100656.80;670116;1269;139279;-76
2023/08/19 01:43:11;;;;;;;31.90;24.20;;;;;;;25.12;100.00;100657.14;669659;1263;139754;-76
2023/08/19 01:58:14;;;;;;;33.60;25.00;;;;;;;24.94;100.00;100655.09;669886;1257;140042;-76
2023/08/19 02:13:18;;;;;;;37.60;25.20;;;;;;;24.87;100.00;100656.20;670117;1260;139400;-76
2023/08/19 02:28:21;;;;;;;47.60;30.20;;;;;;;24.81;100.00;100656.55;669901;1263;139121;-76
2023/08/19 02:43:25;;;;;;;39.10;27.40;;;;;;;24.51;100.00;100665.47;669674;1257;139265;-76
2023/08/19 02:58:28;;;;;;;38.70;28.00;;;;;;;24.36;100.00;100672.32;669980;1267;140320;-76
2023/08/19 03:13:31;;;;;;;40.20;28.10;;;;;;;24.18;100.00;100674.46;669847;1261;139535;-76
2023/08/19 03:28:35;;;;;;;42.50;30.90;;;;;;;23.99;100.00;100672.14;670038;1269;139926;-77
2023/08/19 03:43:39;;;;;;;42.30;29.00;;;;;;;23.97;100.00;100679.27;669161;1257;139341;-76
2023/08/19 03:58:46;;;;;;;44.20;30.50;;;;;;;24.09;100.00;100686.84;669810;1258;139128;-76
2023/08/19 04:13:50;;;;;;;41.10;29.70;;;;;;;23.99;100.00;100694.64;669486;1260;139199;-76
2023/08/19 04:28:53;;;;;;;46.10;31.10;;;;;;;24.13;100.00;100698.85;669458;1261;139510;-76
2023/08/19 04:43:57;;;;;;;42.70;30.50;;;;;;;24.26;100.00;100696.87;669539;1265;140254;-77
2023/08/19 04:59:01;;;;;;;44.50;32.00;;;;;;;24.43;100.00;100698.89;669666;1263;139638;-76
2023/08/19 05:14:05;;;;;;;37.90;26.90;;;;;;;24.46;100.00;100694.63;670113;1260;140539;-76
2023/08/19 05:29:11;;;;;;;27.60;20.20;;;;;;;25.57;100.00;100685.48;669733;1260;140018;-77
2023/08/19 05:44:14;;;;;;;20.30;18.10;;;;;;;28.53;98.83;100690.03;670005;1260;139510;-78
2023/08/19 05:59:19;;;;;;;15.60;13.90;;;;;;;29.94;89.54;100687.67;669826;1260;204931;-78
2023/08/19 06:14:22;;;;;;;16.40;13.90;;;;;;;30.77;84.00;100705.02;670082;1260;139454;-75
2023/08/19 06:29:25;;;;;;;21.60;14.70;;;;;;;31.76;79.50;100716.80;669700;1259;138341;-74
2023/08/19 06:44:30;;;;;;;19.00;14.40;;;;;;;32.43;76.38;100730.04;669926;1272;138657;-77
2023/08/19 06:59:38;;;;;;;16.80;12.80;;;;;;;33.67;72.99;100753.27;669553;1256;139033;-75
2023/08/19 07:14:42;;;;;;;13.50;10.80;;;;;;;33.92;70.01;100758.80;670484;1257;138986;-76
2023/08/19 07:29:51;;;;;;;14.80;10.00;;;;;;;34.00;67.73;100764.10;669838;1260;139256;-78
2023/08/19 07:44:55;;;;;;;11.40;10.20;;;;;;;33.88;65.86;100763.30;670621;1257;139534;-77
2023/08/19 07:59:59;;;;;;;10.80;9.50;;;;;;;34.33;66.38;100762.83;669533;1260;140101;-79
2023/08/19 08:15:03;;;;;;;10.60;8.20;;;;;;;34.63;66.43;100765.78;669928;1269;138627;-78
2023/08/19 08:30:07;;;;;;;9.20;8.30;;;;;;;34.60;65.06;100757.55;669282;1260;139689;-78
2023/08/19 08:45:12;;;;;;;8.80;7.80;;;;;;;35.01;64.61;100749.29;670347;1257;138893;-78
2023/08/19 09:00:16;;;;;;;8.50;7.70;;;;;;;35.59;64.57;100746.63;673748;1257;138883;-78
2023/08/19 09:15:22;;;;;;;10.70;9.10;;;;;;;36.68;62.66;100732.52;672796;1257;137850;-77
2023/08/19 09:30:35;;;;;;;10.10;9.00;;;;;;;36.37;62.68;100731.11;671303;1256;140206;-78
2023/08/19 09:45:38;;;;;;;10.30;9.20;;;;;;;36.78;60.99;100725.20;673479;1260;138718;-76
2023/08/19 10:00:42;;;;;;;10.60;9.00;;;;;;;36.46;61.98;100725.94;670438;1260;138913;-78
2023/08/19 10:15:46;;;;;;;11.10;9.30;;;;;;;36.74;61.12;100727.06;671542;1257;139404;-78
2023/08/19 10:31:15;;;;;;;10.70;9.40;;;;;;;35.83;62.47;100721.99;672247;1260;139172;-76
2023/08/19 10:46:19;;;;;;;8.90;7.90;;;;;;;36.88;60.00;100721.58;672207;1260;139863;-76
2023/08/19 11:01:23;;;;;;;11.50;6.80;;;;;;;36.03;59.54;100703.73;671484;1259;138648;-78
2023/08/19 11:16:30;;;;;;;8.90;6.90;;;;;;;36.91;58.34;100700.42;673389;1257;140151;-81
2023/08/19 11:31:39;;;;;;;8.50;7.00;;;;;;;37.29;57.03;100705.28;674597;1260;139024;-80
2023/08/19 11:46:43;;;;;;;13.50;11.90;;;;;;;37.17;58.20;100700.56;672530;1260;138334;-77
2023/08/19 12:01:47;;;;;;;10.40;8.10;;;;;;;36.42;58.93;100689.20;670905;1260;139752;-77
2023/08/19 12:16:50;;;;;;;10.30;9.20;;;;;;;35.66;60.94;100685.52;673292;1260;139312;-79
2023/08/19 12:31:54;;;;;;;11.10;8.50;;;;;;;35.31;61.23;100676.15;675560;1259;140338;-79
2023/08/19 12:46:58;;;;;;;15.00;13.40;;;;;;;35.39;61.80;100659.64;675252;1257;139573;-79
2023/08/19 13:02:02;;;;;;;10.10;9.10;;;;;;;35.12;61.81;100651.58;674965;1260;140468;-79
2023/08/19 13:17:05;;;;;;;11.10;8.90;;;;;;;34.74;62.61;100643.61;675565;1260;138943;-79
2023/08/19 13:32:09;;;;;;;10.00;9.00;;;;;;;36.06;61.22;100640.19;674698;1260;140497;-79
2023/08/19 13:47:13;;;;;;;13.20;8.50;;;;;;;35.38;61.15;100638.29;674337;1258;137942;-83
2023/08/19 14:02:16;;;;;;;17.00;11.60;;;;;;;35.44;61.31;100630.48;675178;1264;138532;-80
2023/08/19 14:17:19;;;;;;;10.20;8.70;;;;;;;35.19;62.18;100625.98;674650;1260;140051;-80
2023/08/19 14:32:23;;;;;;;9.50;8.50;;;;;;;35.31;61.59;100628.77;674586;1270;139077;-81
2023/08/19 14:47:26;;;;;;;10.70;9.00;;;;;;;34.78;62.25;100631.49;675367;1259;139164;-80
2023/08/19 15:02:48;;;;;;;13.10;10.80;;;;;;;34.61;62.00;100615.48;675374;1260;140101;-80
2023/08/19 15:17:51;;;;;;;8.90;8.00;;;;;;;34.62;62.87;100609.55;675954;1256;139850;-80
2023/08/19 15:32:56;;;;;;;12.30;8.80;;;;;;;34.07;64.48;100589.16;675765;1260;139591;-80
2023/08/19 15:48:00;;;;;;;14.00;9.20;;;;;;;33.96;64.86;100577.92;675608;1271;139657;-80
2023/08/19 16:03:04;;;;;;;10.70;9.20;;;;;;;33.74;65.80;100586.92;676248;1259;140320;-80
2023/08/19 16:18:07;;;;;;;13.60;8.90;;;;;;;33.58;66.22;100599.63;675856;1261;138549;-81
2023/08/19 16:33:26;;;;;;;13.60;9.40;;;;;;;33.28;67.11;100609.45;654313;1298;544967;-81
2023/08/19 16:48:30;;;;;;;14.20;9.70;;;;;;;33.25;68.52;100619.77;669647;1269;138640;-81
2023/08/19 17:03:34;;;;;;;12.10;9.70;;;;;;;33.43;67.83;100628.92;670164;1274;138037;-83
2023/08/19 17:18:38;;;;;;;13.40;10.30;;;;;;;33.10;68.36;100634.93;671012;1273;139013;-78
2023/08/19 17:33:42;;;;;;;35.90;27.80;;;;;;;32.70;69.06;100631.95;669386;1273;137945;-79
2023/08/19 17:48:46;;;;;;;24.30;17.60;;;;;;;32.30;70.38;100624.06;668595;1275;140149;-80
2023/08/19 18:03:50;;;;;;;24.80;22.00;;;;;;;31.37;72.33;100635.07;668827;1273;139134;-80
2023/08/19 18:29:17;;;;;;;14.00;12.60;;;;;;;30.46;75.85;100655.30;654215;1305;544854;-80
2023/08/19 18:44:27;;;;;;;16.00;12.50;;;;;;;29.88;77.61;100662.37;672569;1272;137817;-78
2023/08/19 18:59:43;;;;;;;19.50;12.90;;;;;;;29.31;79.32;100679.64;669424;1275;139305;-80
2023/08/19 19:14:46;;;;;;;22.60;17.00;;;;;;;29.02;80.29;100684.31;670817;1277;139318;-80
2023/08/19 19:29:50;;;;;;;33.80;18.40;;;;;;;28.45;82.13;100694.66;671848;1270;140001;-80
2023/08/19 19:44:54;;;;;;;17.90;11.40;;;;;;;28.32;82.13;100703.39;671927;1270;139004;-80
2023/08/19 19:59:57;;;;;;;19.20;10.80;;;;;;;28.23;80.90;100708.98;673684;1269;139173;-82
2023/08/19 20:15:00;;;;;;;17.00;13.80;;;;;;;27.67;82.24;100707.20;672398;1282;139723;-80
2023/08/19 20:30:04;;;;;;;18.20;12.60;;;;;;;27.55;82.05;100700.21;673079;1270;140341;-81
2023/08/19 20:45:10;;;;;;;17.30;13.00;;;;;;;27.38;82.44;100704.47;672607;1272;141063;-79
2023/08/19 21:00:14;;;;;;;24.10;14.90;;;;;;;27.14;83.28;100698.36;673760;1269;140477;-79
2023/08/19 21:15:18;;;;;;;14.50;12.00;;;;;;;26.82;84.75;100703.72;673515;1269;138999;-80
2023/08/19 21:30:21;;;;;;;22.90;16.20;;;;;;;26.27;85.82;100687.39;674681;1269;140851;-80
2023/08/19 21:45:24;;;;;;;17.60;14.50;;;;;;;25.83;88.25;100685.04;674915;1269;139991;-80
2023/08/19 22:00:27;;;;;;;15.00;13.00;;;;;;;25.61;88.66;100689.79;672661;1266;139166;-79
2023/08/19 22:15:31;;;;;;;25.70;14.30;;;;;;;25.53;89.68;100687.61;672837;1269;140797;-79
2023/08/19 22:30:36;;;;;;;22.80;15.50;;;;;;;25.38;91.00;100688.23;671633;1266;140888;-79
2023/08/19 22:45:39;;;;;;;25.10;16.00;;;;;;;24.96;91.63;100688.89;670535;1272;139481;-79
2023/08/19 23:00:43;;;;;;;16.60;14.00;;;;;;;24.77;93.00;100686.13;669444;1270;138833;-79
2023/08/19 23:15:47;;;;;;;17.80;14.50;;;;;;;24.73;93.17;100684.79;668767;1269;138878;-79
2023/08/19 23:30:51;;;;;;;22.60;16.10;;;;;;;24.51;94.07;100680.57;671656;1273;138683;-80
2023/08/19 23:45:54;;;;;;;19.80;15.90;;;;;;;24.38;94.24;100682.20;672801;1269;138667;-80
